createdAt,value
2022-09-27T00:01:03.225Z,10.95
2022-09-27T00:03:33.483Z,11.78
2022-09-27T00:06:06.500Z,8.96
2022-09-27T00:08:35.327Z,9.80
2022-09-27T00:11:04.844Z,10.63
2022-09-27T00:13:32.866Z,9.30
2022-09-27T00:16:03.757Z,8.64
2022-09-27T00:18:33.893Z,8.47
2022-09-27T00:21:07.377Z,10.44
2022-09-27T00:23:35.619Z,10.33
2022-09-27T00:26:03.913Z,9.78
2022-09-27T00:28:34.028Z,11.67
2022-09-27T00:31:02.687Z,8.32
2022-09-27T00:33:30.760Z,9.53
2022-09-27T00:36:07.055Z,8.81
2022-09-27T00:38:34.963Z,11.58
2022-09-27T00:41:03.198Z,8.23
2022-09-27T00:43:45.614Z,11.57
2022-09-27T00:46:20.020Z,8.42
2022-09-27T00:48:49.937Z,8.95
2022-09-27T00:51:19.546Z,8.19
2022-09-27T00:53:53.625Z,10.72
2022-09-27T00:56:26.156Z,8.04
2022-09-27T00:59:00.219Z,11.42
2022-09-27T01:01:32.879Z,9.37
2022-09-27T01:04:05.697Z,10.17
2022-09-27T01:06:35.508Z,10.15
2022-09-27T01:09:06.460Z,10.20
2022-09-27T01:11:42.717Z,9.85
2022-09-27T01:14:34.867Z,9.58
2022-09-27T01:17:16.974Z,10.60
2022-09-27T01:20:17.157Z,11.24
2022-09-27T01:23:00.677Z,8.41
2022-09-27T01:25:50.596Z,11.25
2022-09-27T01:28:24.288Z,9.97
2022-09-27T01:30:57.234Z,7.66
2022-09-27T01:33:50.045Z,11.28
2022-09-27T01:36:28.141Z,9.88
2022-09-27T01:39:11.617Z,9.64
2022-09-27T01:42:09.160Z,11.30
2022-09-27T01:44:50.447Z,8.03
2022-09-27T01:47:28.673Z,8.66
2022-09-27T01:50:10.737Z,7.58
2022-09-27T01:52:51.704Z,8.87
2022-09-27T01:55:25.534Z,11.14
2022-09-27T01:58:16.873Z,7.85
2022-09-27T02:00:52.080Z,9.55
2022-09-27T02:03:25.871Z,9.24
2022-09-27T02:06:32.230Z,9.32
2022-09-27T02:09:14.320Z,7.84
2022-09-27T02:11:58.458Z,8.73
2022-09-27T02:14:34.487Z,10.86
2022-09-27T02:17:15.223Z,10.27
2022-09-27T02:19:55.705Z,10.13
2022-09-27T02:22:39.867Z,9.38
2022-09-27T02:25:21.243Z,9.97
2022-09-27T02:27:59.058Z,7.72
2022-09-27T02:30:31.749Z,7.53
2022-09-27T02:33:11.871Z,7.16
2022-09-27T02:35:41.606Z,9.54
2022-09-27T02:38:10.781Z,8.99
2022-09-27T02:40:45.192Z,9.80
2022-09-27T02:43:17.841Z,9.01
2022-09-27T02:46:10.464Z,10.04
2022-09-27T02:48:50.524Z,9.80
2022-09-27T02:51:40.684Z,8.96
2022-09-27T02:54:19.859Z,10.81
2022-09-27T02:57:18.853Z,11.03
2022-09-27T03:00:14.205Z,8.30
2022-09-27T03:03:00.667Z,9.48
2022-09-27T03:05:41.625Z,10.39
2022-09-27T03:08:13.060Z,10.12
2022-09-27T03:10:43.832Z,8.70
2022-09-27T03:13:13.301Z,8.72
2022-09-27T03:15:42.411Z,6.83
2022-09-27T03:18:10.895Z,9.21
2022-09-27T03:21:04.122Z,10.66
2022-09-27T03:23:34.198Z,10.84
2022-09-27T03:26:02.529Z,8.94
2022-09-27T03:28:31.033Z,10.59
2022-09-27T03:30:59.806Z,7.44
2022-09-27T03:33:58.678Z,9.78
2022-09-27T03:36:27.640Z,8.52
2022-09-27T03:38:57.545Z,8.80
2022-09-27T03:41:25.841Z,10.83
2022-09-27T03:43:57.870Z,10.83
2022-09-27T03:46:28.055Z,9.72
2022-09-27T03:48:58.510Z,9.81
2022-09-27T03:51:27.401Z,10.61
2022-09-27T03:53:57.311Z,7.87
2022-09-27T03:56:28.339Z,9.27
2022-09-27T03:58:56.933Z,9.55
2022-09-27T04:01:26.324Z,7.23
2022-09-27T04:04:00.900Z,10.17
2022-09-27T04:06:35.161Z,6.72
2022-09-27T04:09:07.014Z,9.01
2022-09-27T04:11:55.783Z,10.70
2022-09-27T04:14:24.162Z,10.60
2022-09-27T04:17:18.516Z,10.27
2022-09-27T04:20:21.981Z,10.70
2022-09-27T04:22:51.341Z,9.07
2022-09-27T04:25:21.280Z,10.68
2022-09-27T04:27:55.352Z,7.49
2022-09-27T04:30:24.933Z,10.65
2022-09-27T04:33:25.497Z,9.00
2022-09-27T04:36:22.461Z,8.98
2022-09-27T04:39:04.090Z,8.79
2022-09-27T04:41:35.857Z,8.46
2022-09-27T04:44:06.650Z,8.45
2022-09-27T04:46:36.035Z,10.46
2022-09-27T04:49:04.868Z,8.56
2022-09-27T04:51:36.485Z,7.51
2022-09-27T04:54:06.032Z,6.87
2022-09-27T04:56:40.170Z,8.67
2022-09-27T04:59:10.972Z,9.24
2022-09-27T05:01:42.084Z,8.63
2022-09-27T05:04:30.591Z,7.29
2022-09-27T05:06:59.504Z,7.44
2022-09-27T05:09:39.518Z,6.50
2022-09-27T05:12:10.033Z,9.78
2022-09-27T05:14:59.799Z,7.37
2022-09-27T05:18:01.895Z,6.80
2022-09-27T05:20:51.444Z,9.25
2022-09-27T05:23:27.281Z,9.28
2022-09-27T05:25:56.678Z,7.93
2022-09-27T05:28:26.238Z,9.99
2022-09-27T05:30:59.540Z,10.01
2022-09-27T05:33:28.893Z,8.85
2022-09-27T05:36:30.632Z,9.91
2022-09-27T05:38:58.410Z,10.04
2022-09-27T05:41:27.573Z,10.07
2022-09-27T05:43:57.248Z,10.09
2022-09-27T05:46:25.320Z,10.10
2022-09-27T05:48:53.532Z,10.12
2022-09-27T05:51:21.542Z,10.16
2022-09-27T05:53:49.329Z,10.17
2022-09-27T05:56:25.823Z,10.20
2022-09-27T05:59:20.986Z,9.83
2022-09-27T06:02:14.898Z,8.61
2022-09-27T06:05:03.678Z,10.21
2022-09-27T06:07:51.695Z,9.75
2022-09-27T06:10:31.684Z,10.30
2022-09-27T06:13:01.256Z,10.36
2022-09-27T06:15:39.086Z,10.32
2022-09-27T06:18:10.104Z,10.51
2022-09-27T06:20:39.004Z,10.28
2022-09-27T06:23:08.626Z,10.23
2022-09-27T06:25:37.277Z,10.63
2022-09-27T06:28:27.429Z,10.64
2022-09-27T06:31:01.077Z,10.64
2022-09-27T06:33:55.083Z,10.64
2022-09-27T06:36:22.911Z,10.61
2022-09-27T06:38:50.686Z,10.67
2022-09-27T06:41:24.934Z,10.15
2022-09-27T06:44:09.684Z,7.64
2022-09-27T06:47:10.122Z,10.79
2022-09-27T06:50:06.793Z,7.21
2022-09-27T06:52:38.208Z,10.60
2022-09-27T06:55:07.535Z,10.33
2022-09-27T06:57:54.349Z,9.02
2022-09-27T07:00:26.568Z,12.08
2022-09-27T07:03:17.638Z,10.26
2022-09-27T07:06:05.359Z,11.37
2022-09-27T07:08:43.236Z,13.00
2022-09-27T07:11:12.756Z,11.85
2022-09-27T07:13:43.668Z,11.47
2022-09-27T07:16:13.464Z,12.87
2022-09-27T07:18:44.202Z,12.78
2022-09-27T07:21:13.612Z,13.52
2022-09-27T07:23:42.014Z,10.73
2022-09-27T07:26:12.814Z,12.42
2022-09-27T07:28:41.691Z,14.71
2022-09-27T07:31:10.693Z,13.81
2022-09-27T07:33:43.001Z,12.89
2022-09-27T07:36:14.551Z,14.52
2022-09-27T07:38:45.749Z,12.36
2022-09-27T07:41:15.598Z,12.46
2022-09-27T07:43:45.757Z,11.25
2022-09-27T07:46:14.798Z,14.36
2022-09-27T07:49:01.006Z,14.50
2022-09-27T07:51:48.777Z,13.91
2022-09-27T08:03:46.336Z,14.61
2022-09-27T08:06:16.263Z,14.45
2022-09-27T08:08:45.896Z,14.04
2022-09-27T08:11:15.369Z,13.85
2022-09-27T08:13:44.486Z,13.93
2022-09-27T08:16:14.578Z,13.44
2022-09-27T08:19:02.965Z,13.87
2022-09-27T08:21:48.029Z,13.71
2022-09-27T08:24:26.150Z,11.10
2022-09-27T08:27:05.181Z,13.36
2022-09-27T08:29:57.074Z,13.73
2022-09-27T08:32:25.079Z,13.93
2022-09-27T08:34:53.736Z,14.10
2022-09-27T08:37:23.203Z,13.99
2022-09-27T08:39:52.932Z,15.16
2022-09-27T08:42:32.773Z,17.65
2022-09-27T08:45:04.896Z,20.15
2022-09-27T08:47:38.972Z,23.89
2022-09-27T08:50:21.091Z,23.69
2022-09-27T08:52:53.986Z,21.21
2022-09-27T08:55:28.907Z,21.56
2022-09-27T08:57:58.760Z,20.75
2022-09-27T09:00:30.647Z,20.01
2022-09-27T09:03:02.487Z,19.14
2022-09-27T09:05:34.732Z,18.20
2022-09-27T09:08:24.935Z,17.45
2022-09-27T09:11:21.639Z,17.16
2022-09-27T09:14:14.816Z,17.09
2022-09-27T09:16:50.732Z,17.09
2022-09-27T09:19:47.268Z,17.09
2022-09-27T09:22:46.893Z,16.95
2022-09-27T09:25:24.533Z,16.76
2022-09-27T09:28:08.304Z,16.09
2022-09-27T09:30:46.705Z,16.37
2022-09-27T09:33:22.975Z,16.73
2022-09-27T09:35:58.939Z,17.17
2022-09-27T09:38:37.930Z,16.98
2022-09-27T09:41:16.186Z,15.88
2022-09-27T09:43:51.418Z,15.92
2022-09-27T09:46:25.594Z,17.73
2022-09-27T09:48:59.039Z,20.71
2022-09-27T09:51:31.391Z,23.19
2022-09-27T09:54:05.655Z,25.93
2022-09-27T09:56:41.174Z,27.64
2022-09-27T09:59:16.722Z,26.83
2022-09-27T10:01:48.310Z,25.34
2022-09-27T10:04:21.171Z,24.30
2022-09-27T10:06:49.605Z,24.50
2022-09-27T10:09:23.312Z,23.98
2022-09-27T10:12:14.270Z,23.83
2022-09-27T10:14:47.871Z,24.71
2022-09-27T10:17:20.067Z,25.51
2022-09-27T10:19:49.461Z,25.23
2022-09-27T10:22:23.420Z,24.83
2022-09-27T10:24:57.723Z,24.12
2022-09-27T10:27:50.503Z,22.52
2022-09-27T10:30:27.349Z,20.98
2022-09-27T10:32:59.392Z,19.62
2022-09-27T10:35:44.953Z,18.46
2022-09-27T10:38:27.765Z,17.49
2022-09-27T10:41:18.849Z,16.62
2022-09-27T10:43:46.694Z,16.10
2022-09-27T10:46:31.209Z,15.84
2022-09-27T10:49:22.569Z,15.78
2022-09-27T10:51:55.679Z,16.74
2022-09-27T10:54:27.563Z,16.74
2022-09-27T10:56:59.001Z,17.25
2022-09-27T10:59:30.573Z,17.39
2022-09-27T11:02:00.273Z,17.00
2022-09-27T11:04:38.119Z,17.43
2022-09-27T11:07:15.317Z,17.07
2022-09-27T11:09:49.780Z,16.69
2022-09-27T11:12:20.727Z,16.37
2022-09-27T11:15:00.137Z,18.23
2022-09-27T11:17:40.308Z,19.26
2022-09-27T11:20:17.521Z,19.18
2022-09-27T11:23:13.035Z,18.99
2022-09-27T11:25:47.579Z,18.51
2022-09-27T11:28:29.526Z,18.18
2022-09-27T11:31:09.732Z,17.89
2022-09-27T11:33:59.592Z,17.50
2022-09-27T11:36:44.924Z,17.03
2022-09-27T11:39:23.398Z,16.67
2022-09-27T11:42:06.240Z,16.50
2022-09-27T11:45:07.818Z,16.33
2022-09-27T11:47:50.883Z,16.37
2022-09-27T11:50:56.545Z,15.94
2022-09-27T11:53:39.306Z,16.26
2022-09-27T11:56:22.328Z,16.05
2022-09-27T11:59:06.342Z,15.75
2022-09-27T12:01:46.121Z,15.09
2022-09-27T12:04:32.068Z,15.10
2022-09-27T12:07:08.975Z,15.45
2022-09-27T12:09:41.240Z,16.20
2022-09-27T12:12:15.587Z,16.37
2022-09-27T12:14:48.077Z,16.80
2022-09-27T12:17:19.655Z,17.02
2022-09-27T12:19:53.802Z,17.51
2022-09-27T12:22:57.669Z,18.03
2022-09-27T12:25:35.225Z,18.45
2022-09-27T12:28:18.729Z,18.85
2022-09-27T12:31:10.856Z,18.78
2022-09-27T12:33:51.018Z,18.47
2022-09-27T12:36:24.431Z,17.75
2022-09-27T12:39:01.743Z,17.84
2022-09-27T12:41:35.544Z,17.70
2022-09-27T12:44:21.219Z,17.74
2022-09-27T12:47:04.575Z,17.77
2022-09-27T12:49:57.640Z,17.58
2022-09-27T12:52:33.429Z,17.25
2022-09-27T12:55:23.932Z,17.61
2022-09-27T12:58:14.177Z,17.50
2022-09-27T13:00:47.878Z,16.86
2022-09-27T13:03:32.535Z,17.54
2022-09-27T13:06:31.746Z,17.60
2022-09-27T13:09:18.286Z,16.53
2022-09-27T13:11:58.519Z,17.37
2022-09-27T13:14:29.292Z,17.14
2022-09-27T13:16:57.725Z,17.02
2022-09-27T13:19:45.460Z,16.11
2022-09-27T13:22:39.216Z,16.38
2022-09-27T13:25:52.917Z,16.00
2022-09-27T13:29:03.901Z,15.55
2022-09-27T13:32:04.300Z,15.27
2022-09-27T13:34:47.381Z,15.09
2022-09-27T13:37:38.297Z,15.09
2022-09-27T13:40:21.473Z,15.17
2022-09-27T13:43:49.365Z,15.26
2022-09-27T13:46:34.580Z,15.35
2022-09-27T13:49:07.200Z,13.91
2022-09-27T13:51:58.903Z,15.22
2022-09-27T13:54:50.586Z,15.03
2022-09-27T13:57:45.424Z,14.91
2022-09-27T14:00:21.267Z,15.10
2022-09-27T14:03:02.661Z,14.51
2022-09-27T14:05:36.854Z,15.14
2022-09-27T14:08:08.142Z,14.76
2022-09-27T14:10:36.851Z,14.42
2022-09-27T14:13:06.990Z,14.86
2022-09-27T14:15:42.221Z,14.59
2022-09-27T14:18:14.798Z,14.25
2022-09-27T14:20:45.992Z,13.90
2022-09-27T14:23:37.370Z,13.61
2022-09-27T14:26:06.139Z,12.29
2022-09-27T14:28:42.697Z,13.54
2022-09-27T14:31:22.925Z,13.51
2022-09-27T14:34:13.653Z,13.37
2022-09-27T14:37:04.088Z,13.80
2022-09-27T14:39:38.744Z,13.26
2022-09-27T14:42:21.827Z,14.50
2022-09-27T14:44:50.271Z,14.83
2022-09-27T14:47:21.154Z,15.04
2022-09-27T14:49:53.022Z,15.00
2022-09-27T14:52:24.247Z,14.71
2022-09-27T14:55:00.597Z,14.67
2022-09-27T14:57:32.735Z,14.73
2022-09-27T15:00:05.279Z,14.72
2022-09-27T15:02:33.884Z,14.52
2022-09-27T15:05:02.963Z,14.32
2022-09-27T15:07:32.715Z,14.17
2022-09-27T15:10:00.632Z,14.02
2022-09-27T15:12:29.100Z,13.90
2022-09-27T15:14:59.400Z,13.79
2022-09-27T15:17:27.162Z,13.77
2022-09-27T15:20:05.405Z,13.78
2022-09-27T15:22:44.025Z,13.57
2022-09-27T15:25:22.632Z,12.97
2022-09-27T15:27:53.340Z,13.71
2022-09-27T15:30:29.860Z,13.34
2022-09-27T15:32:59.371Z,13.48
2022-09-27T15:35:33.440Z,13.73
2022-09-27T15:38:31.051Z,13.73
2022-09-27T15:41:02.641Z,13.70
2022-09-27T15:43:32.897Z,11.68
2022-09-27T15:46:03.655Z,13.57
2022-09-27T15:48:33.294Z,13.54
2022-09-27T15:51:03.382Z,10.90
2022-09-27T15:53:45.424Z,13.38
2022-09-27T15:56:18.186Z,13.02
2022-09-27T15:58:46.093Z,12.57
2022-09-27T16:01:25.456Z,13.01
2022-09-27T16:03:53.678Z,10.26
2022-09-27T16:06:27.387Z,9.58
2022-09-27T16:08:55.367Z,10.16
2022-09-27T16:11:24.265Z,12.24
2022-09-27T16:13:52.929Z,11.90
2022-09-27T16:16:23.004Z,8.67
2022-09-27T16:18:54.160Z,11.92
2022-09-27T16:21:23.788Z,8.84
2022-09-27T16:23:51.951Z,9.75
2022-09-27T16:26:20.480Z,8.36
2022-09-27T16:28:49.029Z,8.45
2022-09-27T16:31:19.221Z,9.05
2022-09-27T16:33:50.861Z,8.32
2022-09-27T16:36:22.904Z,10.40
2022-09-27T16:38:52.475Z,8.35
2022-09-27T16:41:23.684Z,10.28
2022-09-27T16:43:51.872Z,9.84
2022-09-27T16:46:19.883Z,11.02
2022-09-27T16:48:49.871Z,11.20
2022-09-27T16:51:45.496Z,10.15
2022-09-27T16:54:15.820Z,8.13
2022-09-27T16:56:45.203Z,10.09
2022-09-27T16:59:14.234Z,10.17
2022-09-27T17:01:42.743Z,7.10
2022-09-27T17:04:11.184Z,8.69
2022-09-27T17:06:40.107Z,10.63
2022-09-27T17:09:08.116Z,9.11
2022-09-27T17:11:37.203Z,9.88
2022-09-27T17:14:05.187Z,9.94
2022-09-27T17:16:35.090Z,8.79
2022-09-27T17:19:03.925Z,9.53
2022-09-27T17:21:37.729Z,10.16
2022-09-27T17:24:08.095Z,10.09
2022-09-27T17:26:41.410Z,6.71
2022-09-27T17:29:17.697Z,8.40
2022-09-27T17:31:47.650Z,9.99
2022-09-27T17:34:22.785Z,6.60
2022-09-27T17:36:53.262Z,7.63
2022-09-27T17:39:23.646Z,7.82
2022-09-27T17:41:54.405Z,7.05
2022-09-27T17:44:23.665Z,9.82
2022-09-27T17:47:16.094Z,7.89
2022-09-27T17:50:03.942Z,9.96
2022-09-27T17:52:34.622Z,9.98
2022-09-27T17:55:03.537Z,9.97
2022-09-27T17:57:37.219Z,6.43
2022-09-27T18:00:11.631Z,8.29
2022-09-27T18:02:45.062Z,7.66
2022-09-27T18:05:16.691Z,9.18
2022-09-27T18:07:47.328Z,9.98
2022-09-27T18:10:18.793Z,9.96
2022-09-27T18:12:53.426Z,9.22
2022-09-27T18:15:28.027Z,8.88
2022-09-27T18:18:01.561Z,8.67
2022-09-27T18:20:30.364Z,9.88
2022-09-27T18:23:01.521Z,7.91
2022-09-27T18:25:40.896Z,8.61
2022-09-27T18:28:15.420Z,9.82
2022-09-27T18:30:45.745Z,9.81
2022-09-27T18:33:15.553Z,9.80
2022-09-27T18:35:46.812Z,7.60
2022-09-27T18:38:16.706Z,9.82
2022-09-27T18:40:56.261Z,6.77
2022-09-27T18:43:28.706Z,7.84
2022-09-27T18:46:12.242Z,7.11
2022-09-27T18:48:47.644Z,7.66
2022-09-27T18:51:19.268Z,7.72
2022-09-27T18:53:48.415Z,9.10
2022-09-27T18:56:18.571Z,8.71
2022-09-27T18:58:47.820Z,9.82
2022-09-27T19:01:17.793Z,9.30
2022-09-27T19:03:48.360Z,9.93
2022-09-27T19:06:18.798Z,9.96
2022-09-27T19:08:47.985Z,7.54
2022-09-27T19:11:18.639Z,6.30
2022-09-27T19:13:54.232Z,10.05
2022-09-27T19:16:24.467Z,9.29
2022-09-27T19:18:53.376Z,9.29
2022-09-27T19:21:24.620Z,7.07
2022-09-27T19:23:53.545Z,9.19
2022-09-27T19:26:25.158Z,6.43
2022-09-27T19:28:55.473Z,8.97
2022-09-27T19:31:26.365Z,8.00
2022-09-27T19:34:00.537Z,8.99
2022-09-27T19:36:30.246Z,6.61
2022-09-27T19:39:00.280Z,6.71
2022-09-27T19:41:31.852Z,7.23
2022-09-27T19:44:02.429Z,7.66
2022-09-27T19:46:31.679Z,7.23
2022-09-27T19:49:02.514Z,6.52
2022-09-27T19:51:31.797Z,9.54
2022-09-27T19:54:01.044Z,7.72
2022-09-27T19:56:32.877Z,7.03
2022-09-27T19:59:07.038Z,8.07
2022-09-27T20:01:38.073Z,8.84
2022-09-27T20:04:07.546Z,9.15
2022-09-27T20:06:36.237Z,7.94
2022-09-27T20:09:06.290Z,7.76
2022-09-27T20:11:35.087Z,7.06
2022-09-27T20:14:08.213Z,6.22
2022-09-27T20:16:41.416Z,6.64
2022-09-27T20:19:12.200Z,7.81
2022-09-27T20:21:41.347Z,8.39
2022-09-27T20:24:10.915Z,4.74
2022-09-27T20:26:40.356Z,8.38
2022-09-27T20:29:11.410Z,7.21
2022-09-27T20:32:02.844Z,7.13
2022-09-27T20:34:30.832Z,7.29
2022-09-27T20:37:00.170Z,6.41
2022-09-27T20:39:30.045Z,6.40
2022-09-27T20:41:59.547Z,8.65
2022-09-27T20:44:32.006Z,7.46
2022-09-27T20:47:01.248Z,4.80
2022-09-27T20:49:32.631Z,8.39
2022-09-27T20:52:01.937Z,8.78
2022-09-27T20:54:30.547Z,6.42
2022-09-27T20:56:59.011Z,8.88
2022-09-27T20:59:29.835Z,6.54
2022-09-27T21:02:00.693Z,8.26
2022-09-27T21:04:30.509Z,6.77
2022-09-27T21:06:59.658Z,6.17
2022-09-27T21:09:28.492Z,6.18
2022-09-27T21:11:57.390Z,7.36
2022-09-27T21:14:30.535Z,9.02
2022-09-27T21:17:01.956Z,6.17
2022-09-27T21:19:31.161Z,5.45
2022-09-27T21:22:01.152Z,9.04
2022-09-27T21:24:30.592Z,9.15
2022-09-27T21:27:03.517Z,6.12
2022-09-27T21:29:37.511Z,8.99
2022-09-27T21:32:10.331Z,9.19
2022-09-27T21:34:40.037Z,6.13
2022-09-27T21:37:09.033Z,7.62
2022-09-27T21:39:38.244Z,7.96
2022-09-27T21:42:08.031Z,7.53
2022-09-27T21:44:37.823Z,5.77
2022-09-27T21:47:07.003Z,6.63
2022-09-27T21:49:38.163Z,9.37
2022-09-27T21:52:07.330Z,7.83
2022-09-27T21:54:35.827Z,9.44
2022-09-27T21:57:04.910Z,7.26
2022-09-27T21:59:34.952Z,6.59
2022-09-27T22:02:05.249Z,8.27
2022-09-27T22:04:34.472Z,8.56
2022-09-27T22:07:02.900Z,5.94
2022-09-27T22:09:31.329Z,8.31
2022-09-27T22:11:59.639Z,8.25
2022-09-27T22:14:31.261Z,8.11
2022-09-27T22:17:01.018Z,9.59
2022-09-27T22:19:30.913Z,8.71
2022-09-27T22:21:59.466Z,7.52
2022-09-27T22:24:27.844Z,6.61
2022-09-27T22:27:07.173Z,9.58
2022-09-27T22:29:38.742Z,8.39
2022-09-27T22:32:07.464Z,9.61
2022-09-27T22:34:38.431Z,9.64
2022-09-27T22:37:07.242Z,9.66
2022-09-27T22:39:35.967Z,7.52
2022-09-27T22:42:05.857Z,9.68
2022-09-27T22:44:36.337Z,7.56
2022-09-27T22:47:04.943Z,9.10
2022-09-27T22:49:33.400Z,6.45
2022-09-27T22:52:03.429Z,9.10
2022-09-27T22:54:31.946Z,7.78
2022-09-27T22:57:00.360Z,9.83
2022-09-27T22:59:28.776Z,9.07
2022-09-27T23:01:57.277Z,9.61
2022-09-27T23:04:25.695Z,8.96
2022-09-27T23:06:54.242Z,7.20
2022-09-27T23:09:25.315Z,9.90
2022-09-27T23:11:55.756Z,8.29
2022-09-27T23:14:26.160Z,6.38
2022-09-27T23:16:54.949Z,9.90
2022-09-27T23:19:23.712Z,7.23
2022-09-27T23:21:52.285Z,9.02
2022-09-27T23:24:20.673Z,6.37
2022-09-27T23:27:13.018Z,9.26
2022-09-27T23:29:41.780Z,9.24
2022-09-27T23:32:10.653Z,6.78
2022-09-27T23:34:39.192Z,6.87
2022-09-27T23:37:08.915Z,8.48
2022-09-27T23:39:37.386Z,6.90
2022-09-27T23:42:07.163Z,8.57
2022-09-27T23:44:35.535Z,9.68
2022-09-27T23:47:04.315Z,8.10
2022-09-27T23:49:33.278Z,7.73
2022-09-27T23:52:02.111Z,7.62
2022-09-27T23:54:30.864Z,7.87
2022-09-27T23:56:59.150Z,7.86
2022-09-27T23:59:28.779Z,7.46
